Time;durP1;ratioP1;P1;durP2;ratioP2;P2;SDS_P1;SDS_P2;PMS_P1;PMS_P2;Temp;Humidity;BMP_temperature;BMP_pressure;BME280_temperature;BME280_humidity;BME280_pressure;Samples;Min_cycle;Max_cycle;Signal;HPM_P1;HPM_P2
2023/03/19 00:01:10;;;;;;;16.92;11.73;;;12.10;73.40;;;;;;9177422;19;20487;-68
2023/03/19 00:04:17;;;;;;;20.85;11.52;;;12.00;73.40;;;;;;9179087;19;20014;-69
2023/03/19 00:07:23;;;;;;;20.48;11.65;;;12.00;73.50;;;;;;9175767;19;20014;-68
2023/03/19 00:10:27;;;;;;;20.02;12.15;;;12.00;73.50;;;;;;9179878;19;20025;-68
2023/03/19 00:13:33;;;;;;;16.27;11.85;;;12.00;73.60;;;;;;9180495;19;20622;-68
2023/03/19 00:16:37;;;;;;;19.42;11.98;;;12.00;73.60;;;;;;9180802;19;20014;-68
2023/03/19 00:19:45;;;;;;;17.95;11.48;;;12.00;73.70;;;;;;9178121;19;20330;-68
2023/03/19 00:22:50;;;;;;;21.00;12.00;;;12.00;73.80;;;;;;9180234;19;20357;-69
2023/03/19 00:25:56;;;;;;;18.33;11.15;;;12.00;73.80;;;;;;9180442;19;20053;-68
2023/03/19 00:29:00;;;;;;;20.83;11.40;;;11.90;73.70;;;;;;9177552;19;20018;-68
2023/03/19 00:32:08;;;;;;;18.67;10.82;;;11.90;73.80;;;;;;9180244;19;20019;-69
2023/03/19 00:35:14;;;;;;;21.20;12.10;;;11.90;74.50;;;;;;9180102;19;20704;-68
2023/03/19 00:38:21;;;;;;;16.25;11.10;;;11.90;73.90;;;;;;9178804;19;20015;-68
2023/03/19 00:41:26;;;;;;;17.45;10.05;;;11.90;73.90;;;;;;9180271;19;20010;-68
2023/03/19 00:44:32;;;;;;;13.27;9.43;;;11.90;74.00;;;;;;9178301;19;20021;-68
2023/03/19 00:47:36;;;;;;;;;;;11.90;74.00;;;;;;9180142;19;20022;-69
2023/03/19 00:50:44;;;;;;;14.90;8.07;;;11.90;74.00;;;;;;9179773;19;19929;-68
2023/03/19 00:53:48;;;;;;;14.73;9.02;;;11.80;73.90;;;;;;9179125;19;20014;-68
2023/03/19 00:56:55;;;;;;;12.38;7.15;;;11.80;73.90;;;;;;9179211;19;20010;-68
2023/03/19 00:59:59;;;;;;;14.18;7.15;;;11.80;74.00;;;;;;9169765;19;20041;-68
2023/03/19 01:03:05;;;;;;;10.20;5.88;;;11.80;74.30;;;;;;9179741;19;20050;-69
2023/03/19 01:06:12;;;;;;;8.77;5.78;;;11.80;74.10;;;;;;9178765;19;20089;-68
2023/03/19 01:09:20;;;;;;;7.53;4.75;;;11.80;74.10;;;;;;9174615;19;20022;-68
2023/03/19 01:12:24;;;;;;;10.70;4.45;;;11.80;74.20;;;;;;9177663;19;20011;-68
2023/03/19 01:15:30;;;;;;;9.25;4.93;;;11.70;74.80;;;;;;9179233;19;20490;-68
2023/03/19 01:18:34;;;;;;;8.75;4.15;;;11.70;74.20;;;;;;9177522;19;20017;-69
2023/03/19 01:21:45;;;;;;;7.28;4.05;;;11.80;74.30;;;;;;9177956;19;20014;-69
2023/03/19 01:24:51;;;;;;;6.15;3.65;;;11.70;74.30;;;;;;9176380;19;20011;-69
2023/03/19 01:27:57;;;;;;;6.78;3.20;;;11.70;74.30;;;;;;9173119;19;20011;-68
2023/03/19 01:31:03;;;;;;;11.30;4.35;;;11.80;74.40;;;;;;9176625;19;20015;-69
2023/03/19 01:34:27;;;;;;;3.60;2.70;;;11.80;74.40;;;;;;9176269;19;20011;-68
2023/03/19 01:37:39;;;;;;;11.60;2.95;;;11.80;74.40;;;;;;9173574;19;20011;-69
2023/03/19 01:40:46;;;;;;;3.50;2.63;;;11.80;74.50;;;;;;9174068;19;20022;-68
2023/03/19 01:43:51;;;;;;;6.00;2.50;;;11.80;74.50;;;;;;9173839;19;20022;-68
2023/03/19 01:47:19;;;;;;;7.35;3.20;;;11.80;74.50;;;;;;9173929;19;20019;-69
2023/03/19 01:50:52;;;;;;;4.43;2.53;;;11.80;75.10;;;;;;9175029;19;20034;-68
2023/03/19 01:54:11;;;;;;;3.60;2.92;;;11.90;74.50;;;;;;9172751;19;20011;-69
2023/03/19 01:57:38;;;;;;;5.13;2.65;;;11.90;74.60;;;;;;9167658;19;20690;-68
2023/03/19 02:00:47;;;;;;;4.20;2.65;;;11.90;74.50;;;;;;9171177;19;20006;-69
2023/03/19 02:03:52;;;;;;;5.53;2.90;;;11.90;74.50;;;;;;9173112;19;20010;-69
2023/03/19 02:07:06;;;;;;;3.83;2.33;;;11.90;74.50;;;;;;9172637;19;20026;-68
2023/03/19 02:10:18;;;;;;;6.82;2.90;;;11.90;74.50;;;;;;9172282;19;20118;-68
2023/03/19 02:13:25;;;;;;;7.40;2.60;;;11.90;74.50;;;;;;9172308;19;20010;-69
2023/03/19 02:16:29;;;;;;;3.97;2.50;;;11.90;74.50;;;;;;9174181;19;20017;-69
2023/03/19 02:19:42;;;;;;;4.75;2.50;;;12.00;74.60;;;;;;9171770;19;20022;-69
2023/03/19 02:22:53;;;;;;;5.38;2.53;;;11.90;74.60;;;;;;9170336;19;20018;-68
2023/03/19 02:26:06;;;;;;;2.92;2.33;;;11.90;74.60;;;;;;9172358;19;20098;-69
2023/03/19 02:29:10;;;;;;;6.47;2.72;;;11.90;74.50;;;;;;9172210;19;20554;-69
2023/03/19 02:32:17;;;;;;;6.03;2.88;;;11.90;74.50;;;;;;9180012;19;20018;-69
2023/03/19 02:35:23;;;;;;;5.85;2.78;;;11.90;74.60;;;;;;9180749;19;20022;-68
2023/03/19 02:38:28;;;;;;;6.95;3.13;;;11.90;75.30;;;;;;9180902;19;20041;-68
2023/03/19 02:41:40;;;;;;;5.88;2.55;;;11.90;75.40;;;;;;9181461;19;20034;-68
2023/03/19 02:44:45;;;;;;;6.63;2.92;;;11.90;74.70;;;;;;9182297;19;20467;-69
2023/03/19 02:47:51;;;;;;;5.47;2.80;;;11.90;74.70;;;;;;9182119;19;20010;-69
2023/03/19 02:50:55;;;;;;;4.80;2.58;;;11.90;74.70;;;;;;9182153;19;20015;-68
2023/03/19 02:54:01;;;;;;;3.22;2.40;;;11.90;74.80;;;;;;9182331;19;20424;-68
2023/03/19 02:57:07;;;;;;;5.35;2.80;;;11.90;74.80;;;;;;9182359;19;20010;-69
2023/03/19 03:00:15;;;;;;;3.15;2.08;;;11.90;74.90;;;;;;9176314;19;20014;-69
2023/03/19 03:03:20;;;;;;;2.97;1.90;;;11.80;74.80;;;;;;9182212;19;20723;-69
2023/03/19 03:06:26;;;;;;;4.38;2.30;;;11.80;74.90;;;;;;9181978;19;20067;-68
2023/03/19 03:09:30;;;;;;;;;;;11.80;74.90;;;;;;9181821;19;20043;-68
2023/03/19 03:12:39;;;;;;;2.80;1.95;;;11.80;74.90;;;;;;9182212;19;19919;-68
2023/03/19 03:15:43;;;;;;;4.35;2.03;;;11.80;74.70;;;;;;9181783;19;20029;-69
2023/03/19 03:18:49;;;;;;;2.78;1.83;;;11.80;74.90;;;;;;9177227;19;20011;-68
2023/03/19 03:21:53;;;;;;;2.97;1.95;;;11.80;74.90;;;;;;9183330;19;20010;-69
2023/03/19 03:25:00;;;;;;;4.18;2.10;;;11.80;75.00;;;;;;9180101;19;20022;-65
2023/03/19 03:28:09;;;;;;;6.00;2.00;;;11.80;75.10;;;;;;9182390;19;20085;-65
2023/03/19 03:31:15;;;;;;;6.05;2.38;;;11.80;75.10;;;;;;9183248;19;20109;-64
2023/03/19 03:34:19;;;;;;;3.88;2.42;;;11.80;75.10;;;;;;9182313;19;20276;-65
2023/03/19 03:37:25;;;;;;;3.38;2.25;;;11.80;75.20;;;;;;9180771;19;20625;-65
2023/03/19 03:40:30;;;;;;;5.10;2.38;;;11.80;75.20;;;;;;9175514;19;20027;-65
2023/03/19 03:43:38;;;;;;;3.38;2.20;;;11.80;75.20;;;;;;9179271;19;20018;-65
2023/03/19 03:46:43;;;;;;;3.30;2.33;;;11.80;75.30;;;;;;9181295;19;20011;-65
2023/03/19 03:49:50;;;;;;;4.90;2.35;;;11.80;75.30;;;;;;9179799;19;20491;-65
2023/03/19 03:52:53;;;;;;;4.05;2.33;;;11.80;75.40;;;;;;9179641;19;20078;-65
2023/03/19 03:56:00;;;;;;;4.18;2.33;;;11.80;75.40;;;;;;9181678;19;20019;-65
2023/03/19 03:59:08;;;;;;;3.63;2.17;;;11.80;75.50;;;;;;9172492;19;20026;-64
2023/03/19 04:02:14;;;;;;;4.05;2.63;;;11.80;75.90;;;;;;9179268;19;20026;-64
2023/03/19 04:05:20;;;;;;;4.35;2.45;;;11.80;75.60;;;;;;9178943;19;20499;-65
2023/03/19 04:08:26;;;;;;;3.35;2.50;;;11.80;75.60;;;;;;9177668;19;20025;-65
2023/03/19 04:11:30;;;;;;;5.78;2.40;;;11.80;75.60;;;;;;9181009;19;20074;-65
2023/03/19 04:14:38;;;;;;;12.43;3.67;;;11.80;75.60;;;;;;9177719;19;20019;-65
2023/03/19 04:17:42;;;;;;;3.53;2.40;;;11.80;75.60;;;;;;9179082;19;20018;-64
2023/03/19 04:20:48;;;;;;;4.47;2.80;;;11.80;75.70;;;;;;9175536;19;20013;-65
2023/03/19 04:23:52;;;;;;;3.75;2.53;;;11.80;75.70;;;;;;9179122;19;20018;-65
2023/03/19 04:26:59;;;;;;;4.38;2.58;;;11.80;75.70;;;;;;9180848;19;20372;-64
2023/03/19 04:30:06;;;;;;;6.60;2.92;;;11.90;76.00;;;;;;9179161;19;20113;-64
2023/03/19 04:33:12;;;;;;;4.68;2.97;;;11.90;75.80;;;;;;9178877;19;20050;-64
2023/03/19 04:36:16;;;;;;;4.70;2.78;;;11.90;75.80;;;;;;9179719;19;20039;-64
2023/03/19 04:39:23;;;;;;;4.68;2.67;;;11.90;75.80;;;;;;9176912;19;20015;-64
2023/03/19 04:42:28;;;;;;;10.25;3.20;;;11.90;75.90;;;;;;9178438;19;20007;-64
2023/03/19 04:46:02;;;;;;;4.60;2.88;;;11.90;75.90;;;;;;9178307;19;20506;-64
2023/03/19 04:49:08;;;;;;;3.58;2.60;;;11.90;75.90;;;;;;9177281;19;20017;-64
2023/03/19 04:52:14;;;;;;;4.88;2.97;;;11.90;75.90;;;;;;9177730;19;20011;-64
2023/03/19 04:55:18;;;;;;;4.05;2.85;;;11.90;75.90;;;;;;9178671;19;20011;-64
2023/03/19 04:58:34;;;;;;;4.45;3.05;;;11.90;76.00;;;;;;9173140;19;20021;-63
2023/03/19 05:01:42;;;;;;;3.13;2.72;;;11.90;76.00;;;;;;9178528;19;20050;-64
2023/03/19 05:04:50;;;;;;;6.43;3.70;;;11.90;76.10;;;;;;9177644;19;20019;-64
2023/03/19 05:07:56;;;;;;;;;;;11.90;76.10;;;;;;9177681;19;20017;-65
2023/03/19 05:11:03;;;;;;;6.00;3.72;;;11.90;76.10;;;;;;9174078;19;19941;-64
2023/03/19 05:14:16;;;;;;;4.67;3.80;;;11.90;76.00;;;;;;9177457;19;20010;-64
2023/03/19 05:17:40;;;;;;;9.15;4.03;;;11.90;76.10;;;;;;9177161;19;20011;-65
2023/03/19 05:21:05;;;;;;;7.30;4.13;;;11.90;76.20;;;;;;9173385;19;20015;-64
2023/03/19 05:24:11;;;;;;;5.30;3.90;;;11.90;76.20;;;;;;9176362;19;20018;-65
2023/03/19 05:27:15;;;;;;;8.68;4.57;;;11.90;76.20;;;;;;9177182;19;20035;-64
2023/03/19 05:30:28;;;;;;;6.47;4.00;;;11.90;76.30;;;;;;9176825;19;20017;-64
2023/03/19 05:33:54;;;;;;;9.15;4.55;;;11.90;76.40;;;;;;9177042;19;20011;-64
2023/03/19 05:37:00;;;;;;;7.13;4.70;;;11.90;76.40;;;;;;9176000;19;20379;-65
2023/03/19 05:40:05;;;;;;;6.18;4.85;;;11.90;76.50;;;;;;9174195;19;20017;-65
2023/03/19 05:43:12;;;;;;;9.05;5.88;;;11.90;76.50;;;;;;9176639;19;20029;-65
2023/03/19 05:46:17;;;;;;;8.88;5.78;;;11.90;76.50;;;;;;9176210;19;20025;-65
2023/03/19 05:49:25;;;;;;;8.75;5.57;;;11.90;76.50;;;;;;9176089;19;20010;-65
2023/03/19 05:52:29;;;;;;;10.13;5.40;;;11.90;76.60;;;;;;9177152;19;20089;-65
2023/03/19 05:55:38;;;;;;;8.20;5.40;;;11.90;76.70;;;;;;9175820;19;20028;-65
2023/03/19 05:58:45;;;;;;;14.48;6.07;;;11.90;76.70;;;;;;9170127;19;20014;-65
2023/03/19 06:01:54;;;;;;;10.57;5.95;;;11.90;76.80;;;;;;9174268;19;20055;-65
2023/03/19 06:05:00;;;;;;;7.13;5.10;;;11.90;76.80;;;;;;9177644;19;20006;-65
2023/03/19 06:08:09;;;;;;;9.18;5.60;;;11.90;76.90;;;;;;9181825;19;20025;-65
2023/03/19 06:11:31;;;;;;;9.48;5.57;;;11.90;76.90;;;;;;9185153;19;20043;-65
2023/03/19 06:15:03;;;;;;;9.50;6.10;;;11.90;76.90;;;;;;9184235;19;20024;-64
2023/03/19 06:18:28;;;;;;;9.23;6.13;;;11.80;76.80;;;;;;9184901;19;20010;-65
2023/03/19 06:21:36;;;;;;;7.65;5.38;;;11.90;76.90;;;;;;9183981;19;20025;-64
2023/03/19 06:24:40;;;;;;;8.55;6.25;;;11.80;76.90;;;;;;9185620;19;20017;-65
2023/03/19 06:27:46;;;;;;;12.00;6.28;;;11.80;77.00;;;;;;9183221;19;20015;-65
2023/03/19 06:31:09;;;;;;;8.77;6.15;;;11.80;77.00;;;;;;9181845;19;20018;-64
2023/03/19 06:34:37;;;;;;;8.80;5.95;;;11.80;77.00;;;;;;9177801;19;20007;-64
2023/03/19 06:37:43;;;;;;;9.93;6.18;;;11.80;77.10;;;;;;9170097;19;20018;-67
2023/03/19 06:40:49;;;;;;;11.13;7.10;;;11.80;77.10;;;;;;9172936;19;20019;-68
2023/03/19 06:43:54;;;;;;;19.05;10.15;;;11.80;77.20;;;;;;9172394;19;20518;-67
2023/03/19 06:46:59;;;;;;;11.00;8.45;;;11.90;77.40;;;;;;9170995;19;20856;-67
2023/03/19 06:50:04;;;;;;;10.68;7.30;;;11.80;77.30;;;;;;9171891;19;20014;-67
2023/03/19 06:53:12;;;;;;;11.32;7.15;;;11.80;77.30;;;;;;9175478;19;20054;-67
2023/03/19 06:56:16;;;;;;;10.00;6.70;;;11.90;77.50;;;;;;9176298;19;20018;-67
2023/03/19 06:59:22;;;;;;;11.30;7.20;;;11.90;77.50;;;;;;9168676;19;20013;-67
2023/03/19 07:02:26;;;;;;;;;;;11.80;77.40;;;;;;9173964;19;20018;-67
2023/03/19 07:05:32;;;;;;;10.00;6.88;;;11.90;77.40;;;;;;9183603;19;19918;-68
2023/03/19 07:08:38;;;;;;;;;;;11.90;77.20;;;;;;9182294;19;20044;-67
2023/03/19 07:11:44;;;;;;;11.02;7.28;;;11.90;77.30;;;;;;9182841;19;19926;-67
2023/03/19 07:14:48;;;;;;;;;;;11.80;77.10;;;;;;9184607;19;20870;-67
2023/03/19 07:17:54;;;;;;;15.63;7.90;;;11.80;77.20;;;;;;9182062;19;19922;-67
2023/03/19 07:20:58;;;;;;;13.07;7.70;;;11.80;77.10;;;;;;9180140;19;20019;-68
2023/03/19 07:24:06;;;;;;;15.15;8.27;;;11.90;77.40;;;;;;9182684;19;20021;-67
2023/03/19 07:27:10;;;;;;;16.08;7.88;;;11.80;77.50;;;;;;9180586;19;20031;-67
2023/03/19 07:30:17;;;;;;;12.18;8.18;;;11.90;77.60;;;;;;9181839;19;20011;-68
2023/03/19 07:33:21;;;;;;;11.88;8.07;;;11.90;77.70;;;;;;9181850;19;20471;-67
2023/03/19 07:36:27;;;;;;;10.82;8.38;;;11.90;77.80;;;;;;9182216;19;20019;-67
2023/03/19 07:39:33;;;;;;;;;;;12.00;78.00;;;;;;9182277;19;20022;-67
2023/03/19 07:42:39;;;;;;;12.57;8.13;;;12.00;77.90;;;;;;9180542;19;19914;-68
2023/03/19 07:45:43;;;;;;;15.45;9.40;;;12.10;77.70;;;;;;9181414;19;20022;-68
2023/03/19 07:48:50;;;;;;;15.55;9.07;;;12.10;77.80;;;;;;9180147;19;20026;-67
2023/03/19 07:51:54;;;;;;;15.75;9.50;;;12.10;77.90;;;;;;9181712;19;20014;-67
2023/03/19 07:55:02;;;;;;;15.63;9.27;;;12.20;77.90;;;;;;9181825;19;20015;-67
2023/03/19 07:58:06;;;;;;;13.40;8.93;;;12.20;77.90;;;;;;9173955;19;20476;-68
2023/03/19 08:01:12;;;;;;;16.73;8.85;;;12.20;77.90;;;;;;9177555;19;20010;-67
2023/03/19 08:04:16;;;;;;;18.65;9.68;;;12.30;78.00;;;;;;9181360;19;20015;-67
2023/03/19 08:07:23;;;;;;;15.13;8.90;;;12.30;78.10;;;;;;9179997;19;20010;-67
2023/03/19 08:10:29;;;;;;;14.90;9.05;;;12.30;78.00;;;;;;9180763;19;20057;-67
2023/03/19 08:13:35;;;;;;;15.35;9.48;;;12.30;78.10;;;;;;9180226;19;20021;-68
2023/03/19 08:16:39;;;;;;;18.10;10.55;;;12.40;78.10;;;;;;9181139;19;20478;-67
2023/03/19 08:19:45;;;;;;;17.55;10.57;;;12.40;78.10;;;;;;9180359;19;20026;-67
2023/03/19 08:22:51;;;;;;;16.95;10.75;;;12.40;78.00;;;;;;9181429;19;20030;-67
2023/03/19 08:25:59;;;;;;;20.88;11.32;;;12.40;77.90;;;;;;9180432;19;20502;-67
2023/03/19 08:29:05;;;;;;;19.33;10.68;;;12.40;77.80;;;;;;9180746;19;20015;-67
2023/03/19 08:32:11;;;;;;;16.13;9.98;;;12.50;77.80;;;;;;9181879;19;20093;-67
2023/03/19 08:35:15;;;;;;;19.20;11.25;;;12.50;77.80;;;;;;9180817;19;20033;-67
2023/03/19 08:38:21;;;;;;;22.70;10.57;;;12.50;78.40;;;;;;9180191;19;20021;-67
2023/03/19 08:41:27;;;;;;;17.67;11.18;;;12.50;77.80;;;;;;9176872;19;20786;-67
2023/03/19 08:44:33;;;;;;;19.10;11.95;;;12.50;77.80;;;;;;9180240;19;20025;-67
2023/03/19 08:47:37;;;;;;;15.13;10.25;;;12.60;77.90;;;;;;9180299;19;20017;-67
2023/03/19 08:50:43;;;;;;;16.17;9.25;;;12.60;77.80;;;;;;9180603;19;20022;-67
2023/03/19 08:53:47;;;;;;;15.15;9.38;;;12.60;77.80;;;;;;9180390;19;20031;-68
2023/03/19 08:56:55;;;;;;;19.23;9.27;;;12.70;77.80;;;;;;9174964;19;20348;-67
2023/03/19 08:59:59;;;;;;;15.30;9.65;;;12.70;77.90;;;;;;9174170;19;20018;-67
2023/03/19 09:03:05;;;;;;;16.55;9.20;;;12.70;77.80;;;;;;9179037;19;20014;-67
2023/03/19 09:06:11;;;;;;;15.57;9.10;;;12.70;77.80;;;;;;9163568;19;20018;-67
2023/03/19 09:09:17;;;;;;;14.63;9.48;;;12.80;78.50;;;;;;9168859;19;20023;-67
2023/03/19 09:12:23;;;;;;;13.10;9.00;;;12.80;77.70;;;;;;9171362;19;20014;-67
2023/03/19 09:15:29;;;;;;;15.38;9.55;;;12.90;77.80;;;;;;9171555;19;20018;-67
2023/03/19 09:18:33;;;;;;;19.27;11.18;;;12.90;77.70;;;;;;9169953;19;20027;-67
2023/03/19 09:21:40;;;;;;;18.95;9.63;;;12.90;77.70;;;;;;9168275;19;20025;-67
2023/03/19 09:24:44;;;;;;;15.73;9.63;;;13.00;77.70;;;;;;9171866;19;20014;-67
2023/03/19 09:27:52;;;;;;;14.25;9.18;;;13.00;77.60;;;;;;9171834;19;20029;-67
2023/03/19 09:30:56;;;;;;;12.10;7.95;;;13.10;77.60;;;;;;9169249;19;20025;-67
2023/03/19 09:34:02;;;;;;;11.23;7.55;;;13.10;77.50;;;;;;9170387;19;20364;-67
2023/03/19 09:37:06;;;;;;;;;;;13.20;77.50;;;;;;9171482;19;20022;-67
2023/03/19 09:40:21;;;;;;;11.93;7.13;;;13.20;77.40;;;;;;9168520;19;19930;-67
2023/03/19 09:43:42;;;;;;;10.23;6.80;;;13.30;77.40;;;;;;9170734;19;20018;-67
2023/03/19 09:46:53;;;;;;;13.82;7.47;;;13.30;77.40;;;;;;9170689;19;20018;-69
2023/03/19 09:50:00;;;;;;;14.40;8.35;;;13.30;77.30;;;;;;9169501;19;20011;-67
2023/03/19 09:53:14;;;;;;;10.93;7.18;;;13.30;77.30;;;;;;9165449;19;20014;-67
2023/03/19 09:56:18;;;;;;;9.40;6.82;;;13.40;77.40;;;;;;9170264;19;20015;-67
2023/03/19 09:59:28;;;;;;;11.48;6.35;;;13.40;77.30;;;;;;9162331;19;20029;-67
2023/03/19 10:02:43;;;;;;;15.55;6.75;;;13.40;77.20;;;;;;9169510;19;20603;-67
2023/03/19 10:05:57;;;;;;;10.30;6.18;;;13.50;77.20;;;;;;9167234;19;20705;-67
2023/03/19 10:09:26;;;;;;;9.55;6.97;;;13.50;77.20;;;;;;9166779;19;20400;-67
2023/03/19 10:12:47;;;;;;;11.30;7.15;;;13.60;77.40;;;;;;9169194;19;20015;-67
2023/03/19 10:15:54;;;;;;;12.65;6.22;;;13.60;77.30;;;;;;9168767;19;20019;-67
2023/03/19 10:19:04;;;;;;;9.18;6.68;;;13.70;77.20;;;;;;9168772;19;20030;-66
2023/03/19 10:22:13;;;;;;;11.82;6.32;;;13.80;77.20;;;;;;9165320;19;20010;-68
2023/03/19 10:25:23;;;;;;;11.48;5.68;;;13.90;77.30;;;;;;9169211;19;20029;-68
2023/03/19 10:28:29;;;;;;;7.38;5.28;;;14.10;77.30;;;;;;9168027;19;20463;-68
2023/03/19 10:31:49;;;;;;;9.57;5.30;;;14.20;77.10;;;;;;9168047;19;20018;-68
2023/03/19 10:34:53;;;;;;;6.50;5.03;;;14.40;77.20;;;;;;9168689;19;20428;-68
2023/03/19 10:38:16;;;;;;;9.75;6.10;;;14.50;77.60;;;;;;9165836;19;20024;-68
2023/03/19 10:41:30;;;;;;;10.35;6.20;;;14.70;76.90;;;;;;9163200;19;20018;-68
2023/03/19 10:44:40;;;;;;;8.65;5.80;;;14.80;76.80;;;;;;9167485;19;20491;-67
2023/03/19 10:47:47;;;;;;;8.80;5.65;;;14.90;76.60;;;;;;9165319;19;20078;-67
2023/03/19 10:50:59;;;;;;;7.22;5.70;;;15.00;76.40;;;;;;9164870;19;20078;-67
2023/03/19 10:54:03;;;;;;;12.18;7.15;;;15.10;76.40;;;;;;9176144;19;20097;-67
2023/03/19 10:57:23;;;;;;;12.15;6.45;;;15.20;76.20;;;;;;9170579;19;20018;-67
2023/03/19 11:00:32;;;;;;;8.95;5.40;;;15.30;76.10;;;;;;9174311;19;20526;-67
2023/03/19 11:03:50;;;;;;;8.10;5.40;;;15.40;76.00;;;;;;9171120;19;20937;-67
2023/03/19 11:06:56;;;;;;;7.00;4.65;;;15.50;75.90;;;;;;9172879;19;20018;-67
2023/03/19 11:10:02;;;;;;;8.45;5.03;;;15.60;75.90;;;;;;9170946;19;20015;-67
2023/03/19 11:13:08;;;;;;;6.40;4.88;;;15.70;75.80;;;;;;9174519;19;20340;-67
2023/03/19 11:16:14;;;;;;;6.03;4.57;;;15.80;75.80;;;;;;9172931;19;20022;-67
2023/03/19 11:19:25;;;;;;;7.13;4.63;;;15.90;75.70;;;;;;9174310;19;20014;-68
2023/03/19 11:22:34;;;;;;;8.43;4.50;;;16.00;75.70;;;;;;9163881;19;20037;-67
2023/03/19 11:25:40;;;;;;;6.85;3.92;;;16.20;75.70;;;;;;9169489;19;20019;-68
2023/03/19 11:28:52;;;;;;;7.90;4.55;;;16.30;75.50;;;;;;9168855;19;20025;-68
2023/03/19 11:32:06;;;;;;;6.65;3.95;;;16.50;75.40;;;;;;9170018;19;20018;-67
2023/03/19 11:35:33;;;;;;;6.55;4.30;;;16.60;75.20;;;;;;9167798;19;20018;-67
2023/03/19 11:38:50;;;;;;;13.63;5.32;;;16.80;75.10;;;;;;9172191;19;20018;-67
2023/03/19 11:42:25;;;;;;;5.00;3.30;;;17.00;75.00;;;;;;9171374;19;20492;-67
2023/03/19 11:45:36;;;;;;;6.35;4.10;;;17.20;74.60;;;;;;9170633;19;20022;-67
2023/03/19 11:49:08;;;;;;;4.72;3.05;;;17.40;74.50;;;;;;9174249;19;20144;-67
2023/03/19 11:52:23;;;;;;;5.25;3.38;;;17.60;74.20;;;;;;9165409;19;20042;-68
2023/03/19 11:55:35;;;;;;;4.25;2.60;;;17.80;74.00;;;;;;9167525;19;20019;-68
2023/03/19 11:58:59;;;;;;;18.25;3.00;;;18.00;73.80;;;;;;9165505;19;20046;-67
2023/03/19 12:02:39;;;;;;;4.85;2.60;;;18.00;73.20;;;;;;9164786;19;20011;-66
2023/03/19 12:05:50;;;;;;;5.50;2.80;;;18.20;73.10;;;;;;9167099;19;20029;-68
2023/03/19 12:09:03;;;;;;;7.82;3.55;;;18.30;73.10;;;;;;9159139;19;20026;-67
2023/03/19 12:12:15;;;;;;;4.05;2.65;;;18.40;72.70;;;;;;9165241;19;20526;-67
2023/03/19 12:15:28;;;;;;;5.10;2.30;;;18.50;72.60;;;;;;9167673;19;20013;-67
2023/03/19 12:18:58;;;;;;;2.40;2.00;;;18.70;72.30;;;;;;9162346;19;20015;-67
2023/03/19 12:22:17;;;;;;;3.20;2.38;;;18.80;72.10;;;;;;9169531;19;20010;-67
2023/03/19 12:25:31;;;;;;;5.78;2.38;;;18.90;72.00;;;;;;9170030;19;20018;-67
2023/03/19 12:28:43;;;;;;;5.85;2.47;;;19.00;71.80;;;;;;9167577;19;20022;-66
2023/03/19 12:32:04;;;;;;;4.80;2.45;;;19.00;71.50;;;;;;9171535;19;20480;-67
2023/03/19 12:35:15;;;;;;;4.47;2.30;;;19.20;71.30;;;;;;9172191;19;20022;-67
2023/03/19 12:38:25;;;;;;;4.95;2.55;;;19.30;71.30;;;;;;9174323;19;20029;-68
2023/03/19 12:41:37;;;;;;;4.95;2.55;;;19.40;71.10;;;;;;9161376;19;20010;-67
2023/03/19 12:44:46;;;;;;;4.70;2.22;;;19.50;70.80;;;;;;9165218;19;20018;-64
2023/03/19 12:47:58;;;;;;;6.28;2.53;;;19.50;70.50;;;;;;9165900;19;20034;-64
2023/03/19 12:51:06;;;;;;;5.47;2.25;;;19.70;70.30;;;;;;9165653;19;20950;-64
2023/03/19 12:54:19;;;;;;;3.70;1.80;;;19.70;70.10;;;;;;9164553;19;20410;-64
2023/03/19 12:57:33;;;;;;;5.63;2.25;;;19.80;69.80;;;;;;9166146;19;20406;-64
2023/03/19 13:00:46;;;;;;;5.00;2.05;;;19.90;69.40;;;;;;9171442;19;20026;-64
2023/03/19 13:03:56;;;;;;;3.13;1.83;;;19.90;69.40;;;;;;9171181;19;20029;-64
2023/03/19 13:07:07;;;;;;;5.95;1.90;;;19.90;69.10;;;;;;9171296;19;20018;-64
2023/03/19 13:10:18;;;;;;;4.68;1.92;;;19.90;69.00;;;;;;9168692;19;20022;-64
2023/03/19 13:13:41;;;;;;;3.03;1.90;;;19.90;68.80;;;;;;9168067;19;20014;-64
2023/03/19 13:16:51;;;;;;;3.38;1.50;;;19.90;68.30;;;;;;9167591;19;20673;-63
2023/03/19 13:19:59;;;;;;;3.25;2.03;;;19.90;68.40;;;;;;9170028;19;20594;-64
2023/03/19 13:23:06;;;;;;;2.45;1.63;;;19.90;68.40;;;;;;9171342;19;20010;-64
2023/03/19 13:26:14;;;;;;;10.10;1.90;;;19.90;68.80;;;;;;9171010;19;20025;-64
2023/03/19 13:29:22;;;;;;;2.40;1.65;;;19.90;68.20;;;;;;9169620;19;20022;-64
2023/03/19 13:32:37;;;;;;;5.38;1.80;;;19.90;68.00;;;;;;9170596;19;20010;-65
2023/03/19 13:35:45;;;;;;;3.20;1.67;;;19.80;67.80;;;;;;9167497;19;20018;-64
2023/03/19 13:38:52;;;;;;;3.67;1.60;;;19.80;67.90;;;;;;9169367;19;20014;-64
2023/03/19 13:42:10;;;;;;;3.40;1.48;;;19.70;67.80;;;;;;9164093;19;20524;-64
2023/03/19 13:45:34;;;;;;;4.47;1.85;;;19.70;67.30;;;;;;9167840;19;20475;-64
2023/03/19 13:48:40;;;;;;;2.42;1.73;;;19.70;67.20;;;;;;9168892;19;20014;-65
2023/03/19 13:51:48;;;;;;;2.83;1.20;;;19.70;67.50;;;;;;9169759;19;20022;-64
2023/03/19 13:54:56;;;;;;;3.38;1.50;;;19.70;67.40;;;;;;9169156;19;20748;-64
2023/03/19 13:58:48;;;;;;;2.28;1.60;;;19.60;67.10;;;;;;9163814;19;20010;-64
2023/03/19 14:01:46;;;;;;;3.25;1.80;;;19.60;67.00;;;;;;9155575;19;20028;-63
2023/03/19 14:04:55;;;;;;;4.32;1.80;;;19.60;67.00;;;;;;9165438;19;20021;-64
2023/03/19 14:07:59;;;;;;;3.40;1.63;;;19.50;67.00;;;;;;9168314;19;20014;-64
2023/03/19 14:11:06;;;;;;;5.90;2.15;;;19.50;66.90;;;;;;9167308;19;20011;-64
2023/03/19 14:14:17;;;;;;;3.72;1.77;;;19.50;66.80;;;;;;9168531;19;20010;-64
2023/03/19 14:17:27;;;;;;;4.85;1.55;;;19.50;66.50;;;;;;9166444;19;20369;-64
2023/03/19 14:20:34;;;;;;;2.85;1.70;;;19.40;66.40;;;;;;9166447;19;20086;-64
2023/03/19 14:23:56;;;;;;;3.45;1.92;;;19.40;66.40;;;;;;9168403;19;20026;-65
2023/03/19 14:27:04;;;;;;;6.40;2.30;;;19.40;66.30;;;;;;9170371;19;20014;-63
2023/03/19 14:30:20;;;;;;;8.00;2.67;;;19.30;66.40;;;;;;9170461;19;20606;-64
2023/03/19 14:33:31;;;;;;;3.58;2.20;;;19.20;66.30;;;;;;9169582;19;20026;-64
2023/03/19 14:36:42;;;;;;;8.47;2.90;;;19.20;66.30;;;;;;9174322;19;20026;-63
2023/03/19 14:39:50;;;;;;;5.30;2.97;;;19.10;66.30;;;;;;9175229;19;20059;-63
2023/03/19 14:43:05;;;;;;;6.28;3.63;;;19.00;66.30;;;;;;9172412;19;20014;-63
2023/03/19 14:46:22;;;;;;;7.20;4.70;;;18.90;66.20;;;;;;9164981;19;20031;-64
2023/03/19 14:49:53;;;;;;;9.27;4.90;;;18.80;66.20;;;;;;9163418;19;20332;-63
2023/03/19 14:53:03;;;;;;;6.63;4.47;;;18.70;66.10;;;;;;9165799;19;20494;-63
2023/03/19 14:56:15;;;;;;;11.00;4.38;;;18.60;66.30;;;;;;9165170;19;20015;-63
2023/03/19 14:59:20;;;;;;;7.88;4.32;;;18.50;66.30;;;;;;9161449;19;20126;-63
2023/03/19 15:02:35;;;;;;;11.15;4.55;;;18.50;66.40;;;;;;9162934;19;20025;-63
2023/03/19 15:05:41;;;;;;;7.53;5.07;;;18.40;66.30;;;;;;9166150;19;20014;-63
2023/03/19 15:08:48;;;;;;;19.45;11.27;;;18.30;66.50;;;;;;9163293;19;20011;-63
2023/03/19 15:12:10;;;;;;;23.40;10.38;;;18.30;66.60;;;;;;9167976;19;20333;-63
2023/03/19 15:15:25;;;;;;;20.48;12.32;;;18.20;66.60;;;;;;9164135;19;20018;-63
2023/03/19 15:18:29;;;;;;;20.50;12.10;;;18.10;66.90;;;;;;9166009;19;20055;-63
2023/03/19 15:21:37;;;;;;;22.38;12.20;;;18.00;67.10;;;;;;9165993;19;20021;-65
2023/03/19 15:24:42;;;;;;;25.85;13.68;;;17.90;67.20;;;;;;9165671;19;20022;-64
2023/03/19 15:28:06;;;;;;;23.25;12.48;;;17.90;67.30;;;;;;9167294;19;20018;-64
2023/03/19 15:31:11;;;;;;;21.98;13.18;;;17.70;67.40;;;;;;9166340;19;20557;-64
2023/03/19 15:34:38;;;;;;;23.35;12.82;;;17.60;67.50;;;;;;9172122;19;20014;-64
2023/03/19 15:37:48;;;;;;;19.85;12.23;;;17.50;67.70;;;;;;9167224;19;20022;-65
2023/03/19 15:40:55;;;;;;;21.98;13.70;;;17.50;67.90;;;;;;9163277;19;20495;-64
2023/03/19 15:44:00;;;;;;;20.50;12.65;;;17.40;67.90;;;;;;9167203;19;20051;-64
2023/03/19 15:47:08;;;;;;;22.48;12.85;;;17.30;68.00;;;;;;9166318;19;20006;-63
2023/03/19 15:50:17;;;;;;;21.58;13.45;;;17.20;68.10;;;;;;9165192;19;20018;-64
2023/03/19 15:53:28;;;;;;;23.05;13.73;;;17.10;68.20;;;;;;9164088;19;20419;-63
2023/03/19 15:56:32;;;;;;;24.88;13.32;;;17.00;68.30;;;;;;9163001;19;20678;-64
2023/03/19 15:59:39;;;;;;;21.50;12.60;;;16.90;68.30;;;;;;9159001;19;20018;-64
2023/03/19 16:02:45;;;;;;;23.80;13.52;;;16.80;68.40;;;;;;9164195;19;20029;-63
2023/03/19 16:06:02;;;;;;;23.77;12.98;;;16.80;68.50;;;;;;9162200;19;20025;-63
2023/03/19 16:09:23;;;;;;;27.63;15.32;;;16.70;68.70;;;;;;9162403;19;20018;-63
2023/03/19 16:12:38;;;;;;;24.20;13.65;;;16.60;68.70;;;;;;9165180;19;20464;-65
2023/03/19 16:15:45;;;;;;;26.60;13.13;;;16.60;68.80;;;;;;9164339;19;20086;-64
2023/03/19 16:18:53;;;;;;;26.92;14.13;;;16.50;68.80;;;;;;9168851;19;20022;-64
2023/03/19 16:21:57;;;;;;;31.17;14.07;;;16.50;69.00;;;;;;9163219;19;20022;-64